Time;durP1;ratioP1;P1;durP2;ratioP2;P2;SDS_P1;SDS_P2;PMS_P1;PMS_P2;Temp;Humidity;BMP_temperature;BMP_pressure;BME280_temperature;BME280_humidity;BME280_pressure;Samples;Min_cycle;Max_cycle;Signal;HPM_P1;HPM_P2
2024/01/09 00:01:04;;;;;;;13.97;7.93;;;-5.20;99.90;;;;;;4933604;28;20246;-52
2024/01/09 00:03:30;;;;;;;16.00;7.73;;;-5.20;99.90;;;;;;4923182;28;20307;-52
2024/01/09 00:05:56;;;;;;;14.57;8.23;;;-5.30;99.90;;;;;;4926980;28;20230;-52
2024/01/09 00:08:21;;;;;;;13.80;7.90;;;-5.40;99.90;;;;;;4932967;28;20237;-52
2024/01/09 00:10:47;;;;;;;13.87;8.10;;;-5.40;99.90;;;;;;4933400;28;20212;-51
2024/01/09 00:13:12;;;;;;;10.73;7.53;;;-5.40;99.90;;;;;;4931720;28;20209;-51
2024/01/09 00:15:38;;;;;;;10.00;6.63;;;-5.40;99.90;;;;;;4935112;28;20241;-51
2024/01/09 00:18:03;;;;;;;13.17;7.60;;;-5.50;99.90;;;;;;4931962;28;20198;-51
2024/01/09 00:20:29;;;;;;;12.30;7.83;;;-5.50;99.90;;;;;;4935357;28;20697;-51
2024/01/09 00:22:54;;;;;;;17.20;8.00;;;-5.40;99.90;;;;;;4940603;28;20730;-51
2024/01/09 00:25:20;;;;;;;10.53;7.37;;;-5.40;99.90;;;;;;4935085;28;20637;-50
2024/01/09 00:27:46;;;;;;;12.87;7.40;;;-5.40;99.90;;;;;;4943174;28;20220;-50
2024/01/09 00:30:12;;;;;;;11.27;7.13;;;-5.50;99.90;;;;;;4943761;28;20205;-51
2024/01/09 00:32:37;;;;;;;9.87;7.03;;;-5.50;99.90;;;;;;4940148;28;20259;-51
2024/01/09 00:35:04;;;;;;;15.87;8.13;;;-5.40;99.90;;;;;;4946158;28;20696;-51
2024/01/09 00:37:29;;;;;;;14.30;8.23;;;-5.40;99.90;;;;;;4945945;28;20209;-51
2024/01/09 00:39:55;;;;;;;10.93;7.87;;;-5.40;99.90;;;;;;4926868;28;20222;-51
2024/01/09 00:42:20;;;;;;;9.87;7.43;;;-5.40;99.90;;;;;;4936825;28;20212;-51
2024/01/09 00:44:46;;;;;;;11.43;8.33;;;-5.30;99.90;;;;;;4945686;28;20206;-51
2024/01/09 00:47:11;;;;;;;10.30;8.90;;;-5.30;99.90;;;;;;4930487;28;20828;-60
2024/01/09 00:49:37;;;;;;;9.37;7.57;;;-5.30;99.90;;;;;;4937702;28;20202;-52
2024/01/09 00:52:03;;;;;;;11.50;7.40;;;-5.30;99.90;;;;;;4945059;28;20258;-51
2024/01/09 00:54:29;;;;;;;11.87;7.80;;;-5.30;99.90;;;;;;4947262;28;20199;-51
2024/01/09 00:56:55;;;;;;;13.03;7.83;;;-5.30;99.90;;;;;;4949480;28;20881;-50
2024/01/09 00:59:20;;;;;;;11.53;7.53;;;-5.30;99.90;;;;;;4941108;28;20293;-50
2024/01/09 01:01:50;;;;;;;10.77;7.67;;;-5.20;99.90;;;;;;4938211;28;20221;-51
2024/01/09 01:04:16;;;;;;;10.20;7.27;;;-5.20;99.90;;;;;;4949656;28;20297;-50
2024/01/09 01:06:42;;;;;;;12.40;7.97;;;-4.90;99.90;;;;;;4944161;28;20850;-50
2024/01/09 01:09:08;;;;;;;11.67;7.60;;;-4.80;99.90;;;;;;4942401;28;20214;-51
2024/01/09 01:11:33;;;;;;;11.83;8.53;;;-4.70;99.90;;;;;;4947267;28;20209;-51
2024/01/09 01:13:59;;;;;;;18.00;9.43;;;-4.60;99.90;;;;;;4958037;28;20308;-51
2024/01/09 01:16:24;;;;;;;14.90;8.57;;;-4.60;99.90;;;;;;4944479;28;20290;-51
2024/01/09 01:18:50;;;;;;;11.93;8.00;;;-4.80;99.90;;;;;;4933359;28;20201;-51
2024/01/09 01:21:16;;;;;;;14.00;9.27;;;-4.70;99.90;;;;;;4949344;28;20427;-50
2024/01/09 01:23:44;;;;;;;12.30;8.10;;;-4.90;99.90;;;;;;4948466;28;20225;-51
2024/01/09 01:26:09;;;;;;;12.13;7.10;;;-4.90;99.90;;;;;;4940510;28;20234;-51
2024/01/09 01:28:35;;;;;;;12.17;7.97;;;-4.80;99.90;;;;;;4936966;28;20253;-50
2024/01/09 01:31:02;;;;;;;12.73;7.93;;;-4.80;99.90;;;;;;4948400;28;20576;-51
2024/01/09 01:33:28;;;;;;;12.03;7.53;;;-4.80;99.90;;;;;;4943889;28;20210;-51
2024/01/09 01:35:53;;;;;;;14.03;7.40;;;-4.80;99.90;;;;;;4956536;28;20523;-51
2024/01/09 01:38:19;;;;;;;11.30;7.43;;;-4.90;99.90;;;;;;4940052;28;20212;-51
2024/01/09 01:40:44;;;;;;;11.53;6.37;;;-5.00;99.90;;;;;;4934791;28;20298;-51
2024/01/09 01:43:10;;;;;;;11.50;7.27;;;-5.10;99.90;;;;;;4953392;28;20811;-51
2024/01/09 01:45:35;;;;;;;14.77;7.80;;;-5.00;99.90;;;;;;4945013;28;20201;-50
2024/01/09 01:48:02;;;;;;;11.03;7.30;;;-5.00;99.90;;;;;;4946453;28;20199;-50
2024/01/09 01:50:30;;;;;;;12.73;7.73;;;-5.20;99.90;;;;;;4941662;28;20259;-50
2024/01/09 01:52:57;;;;;;;12.73;7.43;;;-5.40;99.90;;;;;;4940990;28;20292;-50
2024/01/09 01:55:25;;;;;;;12.23;7.77;;;-5.40;99.90;;;;;;4946140;28;20267;-52
2024/01/09 01:57:53;;;;;;;12.67;7.47;;;-5.20;99.90;;;;;;4950391;28;20208;-52
2024/01/09 02:00:20;;;;;;;10.67;7.93;;;-5.20;99.90;;;;;;4935588;28;20223;-52
2024/01/09 02:02:50;;;;;;;11.10;7.47;;;-5.20;99.90;;;;;;4939315;28;20214;-51
2024/01/09 02:05:17;;;;;;;12.57;6.93;;;-5.20;99.90;;;;;;4944519;28;20233;-50
2024/01/09 02:07:46;;;;;;;11.50;7.27;;;-5.20;99.90;;;;;;4944516;28;20234;-51
2024/01/09 02:10:11;;;;;;;14.43;8.40;;;-5.10;99.90;;;;;;4943474;28;20285;-51
2024/01/09 02:12:37;;;;;;;13.70;7.63;;;-5.10;99.90;;;;;;4946299;28;20304;-51
2024/01/09 02:15:04;;;;;;;12.07;7.00;;;-5.10;99.90;;;;;;4944829;28;20222;-52
2024/01/09 02:17:30;;;;;;;14.13;7.77;;;-5.00;99.90;;;;;;4940824;28;20244;-52
2024/01/09 02:19:58;;;;;;;12.20;7.53;;;-4.90;99.90;;;;;;4944485;28;20237;-61
2024/01/09 02:22:24;;;;;;;11.37;8.60;;;-5.10;99.90;;;;;;4944788;28;20396;-52
2024/01/09 02:24:49;;;;;;;13.10;8.40;;;-5.20;99.90;;;;;;4944766;28;20287;-52
2024/01/09 02:27:42;;;;;;;11.93;7.03;;;-5.40;99.90;;;;;;4943581;28;20695;-51
2024/01/09 02:30:08;;;;;;;10.57;6.97;;;-5.50;99.90;;;;;;4930429;28;20231;-53
2024/01/09 02:32:34;;;;;;;13.60;8.57;;;-5.60;99.90;;;;;;4943762;28;20725;-52
2024/01/09 02:35:00;;;;;;;13.07;8.03;;;-5.70;99.90;;;;;;4949141;28;20206;-51
2024/01/09 02:37:25;;;;;;;10.03;7.33;;;-5.70;99.90;;;;;;4940754;28;20698;-52
2024/01/09 02:39:51;;;;;;;12.07;7.23;;;-5.60;99.90;;;;;;4938159;28;20210;-52
2024/01/09 02:42:16;;;;;;;14.20;8.17;;;-5.60;99.90;;;;;;4943458;28;20217;-52
2024/01/09 02:44:42;;;;;;;13.23;8.30;;;-5.40;99.90;;;;;;4948570;28;20284;-52
2024/01/09 02:47:08;;;;;;;12.43;7.77;;;-5.50;99.90;;;;;;4942817;28;20236;-52
2024/01/09 02:49:35;;;;;;;13.83;7.53;;;-5.70;99.90;;;;;;4940483;28;20209;-51
2024/01/09 02:52:02;;;;;;;11.50;7.53;;;-5.80;99.90;;;;;;4942916;28;20233;-52
2024/01/09 02:54:27;;;;;;;13.40;7.50;;;-5.60;99.90;;;;;;4940019;28;20198;-51
2024/01/09 02:56:53;;;;;;;13.27;7.83;;;-5.70;99.90;;;;;;4935876;28;20646;-51
2024/01/09 02:59:18;;;;;;;14.10;7.50;;;-5.90;99.90;;;;;;4935388;28;20201;-51
2024/01/09 03:01:44;;;;;;;11.20;7.00;;;-5.80;99.90;;;;;;4939559;28;20213;-51
2024/01/09 03:04:09;;;;;;;14.83;8.87;;;-5.70;99.90;;;;;;4943840;28;20237;-51
2024/01/09 03:06:35;;;;;;;13.23;7.27;;;-5.90;99.90;;;;;;4944693;28;20233;-50
2024/01/09 03:09:00;;;;;;;13.47;8.00;;;-5.90;99.90;;;;;;4958310;28;20259;-51
2024/01/09 03:11:26;;;;;;;12.10;7.47;;;-5.80;99.90;;;;;;4942859;28;20207;-51
2024/01/09 03:13:51;;;;;;;13.10;8.33;;;-5.70;99.90;;;;;;4939051;28;20264;-51
2024/01/09 03:16:17;;;;;;;12.97;7.17;;;-5.70;99.90;;;;;;4946268;28;20205;-51
2024/01/09 03:18:43;;;;;;;14.90;8.10;;;-5.60;99.90;;;;;;4944153;28;20193;-51
2024/01/09 03:21:12;;;;;;;13.60;8.03;;;-5.60;99.90;;;;;;4941233;28;20635;-50
2024/01/09 03:23:37;;;;;;;13.27;7.63;;;-5.40;99.90;;;;;;4941715;28;20202;-51
2024/01/09 03:26:03;;;;;;;13.20;7.90;;;-5.40;99.90;;;;;;4945710;28;20554;-50
2024/01/09 03:28:29;;;;;;;13.43;7.10;;;-5.30;99.90;;;;;;4929842;28;20281;-52
2024/01/09 03:30:55;;;;;;;12.97;8.40;;;-5.30;99.90;;;;;;4943561;28;20201;-60
2024/01/09 03:33:20;;;;;;;14.17;7.83;;;-5.30;99.90;;;;;;4944910;28;20607;-61
2024/01/09 03:35:46;;;;;;;13.30;7.20;;;-5.30;99.90;;;;;;4952769;28;20198;-60
2024/01/09 03:38:11;;;;;;;11.17;8.60;;;-5.40;99.90;;;;;;4939425;28;20686;-51
2024/01/09 03:40:37;;;;;;;13.87;7.47;;;-5.50;99.90;;;;;;4939964;28;20225;-52
2024/01/09 03:43:03;;;;;;;13.00;7.07;;;-5.60;99.90;;;;;;4943346;28;20193;-49
2024/01/09 03:45:29;;;;;;;13.30;8.37;;;-5.60;99.90;;;;;;4947710;28;20309;-50
2024/01/09 03:47:55;;;;;;;13.77;8.40;;;-5.70;99.90;;;;;;4931446;28;20194;-51
2024/01/09 03:50:20;;;;;;;13.13;8.53;;;-5.70;99.90;;;;;;4934620;28;20268;-51
2024/01/09 03:52:46;;;;;;;12.17;7.20;;;-5.80;99.90;;;;;;4935185;28;20217;-51
2024/01/09 03:55:11;;;;;;;12.23;8.37;;;-5.80;99.90;;;;;;4959003;28;20300;-55
2024/01/09 03:57:37;;;;;;;14.10;7.90;;;-5.90;99.90;;;;;;4941755;28;20760;-51
2024/01/09 04:00:03;;;;;;;14.87;8.70;;;-5.80;99.90;;;;;;4936339;28;20225;-51
2024/01/09 04:02:29;;;;;;;15.70;8.50;;;-5.70;99.90;;;;;;4938146;28;20221;-51
2024/01/09 04:04:54;;;;;;;14.57;8.07;;;-5.70;99.90;;;;;;4943463;28;20806;-51
2024/01/09 04:07:20;;;;;;;12.80;8.27;;;-5.90;99.90;;;;;;4936578;28;20226;-51
2024/01/09 04:09:45;;;;;;;11.97;7.97;;;-5.90;99.90;;;;;;4953798;28;20913;-51
2024/01/09 04:12:11;;;;;;;15.93;8.13;;;-5.90;99.90;;;;;;4934398;28;20209;-51
2024/01/09 04:14:37;;;;;;;11.87;7.50;;;-5.90;99.90;;;;;;4933862;28;20194;-51
2024/01/09 04:17:03;;;;;;;14.47;8.37;;;-6.00;99.90;;;;;;4937887;28;20694;-50
2024/01/09 04:19:28;;;;;;;11.97;8.00;;;-6.00;99.90;;;;;;4944911;28;20206;-51
2024/01/09 04:21:54;;;;;;;14.03;7.97;;;-5.90;99.90;;;;;;4933162;28;20305;-50
2024/01/09 04:24:19;;;;;;;13.03;9.23;;;-6.00;99.90;;;;;;4937556;28;20206;-51
2024/01/09 04:26:45;;;;;;;14.23;8.23;;;-6.20;99.90;;;;;;4938691;28;20233;-51
2024/01/09 04:29:10;;;;;;;12.40;7.70;;;-6.30;99.90;;;;;;4944019;28;20913;-51
2024/01/09 04:31:36;;;;;;;11.37;7.30;;;-6.30;99.90;;;;;;4933919;28;20394;-51
2024/01/09 04:34:02;;;;;;;11.40;7.47;;;-6.10;99.90;;;;;;4934321;28;20198;-51
2024/01/09 04:36:27;;;;;;;10.87;8.07;;;-6.00;99.90;;;;;;4944083;28;20207;-50
2024/01/09 04:38:53;;;;;;;12.87;7.60;;;-6.00;99.90;;;;;;4933325;28;20198;-51
2024/01/09 04:41:18;;;;;;;10.60;7.77;;;-6.10;99.90;;;;;;4924373;28;20627;-52
2024/01/09 04:43:45;;;;;;;13.73;7.70;;;-6.30;99.90;;;;;;4934418;28;20209;-51
2024/01/09 04:46:11;;;;;;;14.27;8.13;;;-6.50;99.90;;;;;;4946849;28;20708;-51
2024/01/09 04:48:36;;;;;;;11.63;7.27;;;-6.50;99.90;;;;;;4939655;28;20213;-51
2024/01/09 04:51:02;;;;;;;15.10;7.20;;;-6.40;99.90;;;;;;4942254;28;20197;-53
2024/01/09 04:53:27;;;;;;;12.73;6.20;;;-6.40;99.90;;;;;;4938615;28;20977;-51
2024/01/09 04:55:53;;;;;;;13.97;8.27;;;-6.40;99.90;;;;;;4929898;28;20202;-53
2024/01/09 04:58:19;;;;;;;13.67;9.43;;;-6.50;99.90;;;;;;4940625;28;20213;-51
2024/01/09 05:00:44;;;;;;;11.93;7.57;;;-6.50;99.90;;;;;;4933383;28;20222;-51
2024/01/09 05:03:10;;;;;;;11.77;8.13;;;-6.60;99.90;;;;;;4936434;28;20237;-51
2024/01/09 05:05:36;;;;;;;14.80;8.47;;;-6.60;99.90;;;;;;4940822;28;20218;-51
2024/01/09 05:08:01;;;;;;;13.43;8.63;;;-6.60;99.90;;;;;;4934872;28;20281;-51
2024/01/09 05:10:30;;;;;;;16.70;8.53;;;-6.60;99.90;;;;;;4943857;28;20252;-52
2024/01/09 05:12:55;;;;;;;17.00;9.13;;;-6.50;99.90;;;;;;4938522;28;20298;-52
2024/01/09 05:15:21;;;;;;;13.67;8.57;;;-6.60;99.90;;;;;;4940848;28;20616;-52
2024/01/09 05:17:47;;;;;;;15.30;7.83;;;-6.50;99.90;;;;;;4929496;28;20289;-51
2024/01/09 05:20:12;;;;;;;20.23;9.80;;;-6.60;99.90;;;;;;4940738;28;20579;-52
2024/01/09 05:22:38;;;;;;;17.20;9.27;;;-6.60;99.90;;;;;;4930641;28;20421;-51
2024/01/09 05:25:04;;;;;;;16.63;8.83;;;-6.60;99.90;;;;;;4949187;28;20273;-50
2024/01/09 05:27:30;;;;;;;22.97;7.97;;;-6.40;99.90;;;;;;4946672;28;20643;-50
2024/01/09 05:29:55;;;;;;;14.70;9.37;;;-6.40;99.90;;;;;;4935634;28;20210;-50
2024/01/09 05:32:21;;;;;;;17.57;8.20;;;-6.40;99.90;;;;;;4938957;28;20210;-50
2024/01/09 05:34:47;;;;;;;17.63;8.33;;;-6.30;99.90;;;;;;4945065;28;20197;-51
2024/01/09 05:37:12;;;;;;;17.73;8.67;;;-6.30;99.90;;;;;;4948850;28;20502;-50
2024/01/09 05:39:38;;;;;;;18.57;10.23;;;-6.20;99.90;;;;;;4943442;28;21065;-50
2024/01/09 05:42:04;;;;;;;13.00;8.47;;;-6.40;99.90;;;;;;4945686;28;20696;-50
2024/01/09 05:44:29;;;;;;;12.30;8.03;;;-6.60;99.90;;;;;;4945909;28;20739;-50
2024/01/09 05:46:55;;;;;;;12.47;8.23;;;-6.60;99.90;;;;;;4945798;28;20201;-51
2024/01/09 05:49:21;;;;;;;14.73;8.53;;;-6.50;99.90;;;;;;4944030;28;20206;-51
2024/01/09 05:51:46;;;;;;;14.23;8.60;;;-6.50;99.90;;;;;;4933839;28;20194;-52
2024/01/09 05:54:12;;;;;;;14.10;9.30;;;-6.40;99.90;;;;;;4943178;28;20259;-52
2024/01/09 05:56:37;;;;;;;14.13;8.43;;;-6.40;99.90;;;;;;4944304;28;20597;-51
2024/01/09 05:59:03;;;;;;;12.47;7.80;;;-6.50;99.90;;;;;;4934956;28;20205;-51
2024/01/09 06:01:29;;;;;;;17.23;9.47;;;-6.60;99.90;;;;;;4932071;28;21028;-51
2024/01/09 06:03:54;;;;;;;16.17;7.87;;;-6.60;99.90;;;;;;4936179;28;20305;-51
2024/01/09 06:06:20;;;;;;;15.80;8.90;;;-6.50;99.90;;;;;;4945580;28;20256;-51
2024/01/09 06:08:48;;;;;;;12.60;7.67;;;-6.50;99.90;;;;;;4937179;28;20237;-51
2024/01/09 06:11:14;;;;;;;11.37;8.23;;;-6.50;99.90;;;;;;4945205;28;20723;-51
2024/01/09 06:13:40;;;;;;;17.50;8.30;;;-6.50;99.90;;;;;;4941589;28;20673;-51
2024/01/09 06:16:06;;;;;;;10.33;7.77;;;-6.40;99.90;;;;;;4942950;28;20289;-51
2024/01/09 06:18:31;;;;;;;17.97;8.97;;;-6.40;99.90;;;;;;4941994;28;20194;-51
2024/01/09 06:20:56;;;;;;;18.63;9.00;;;-6.30;99.90;;;;;;4937938;28;20565;-51
2024/01/09 06:23:22;;;;;;;20.47;8.53;;;-6.30;99.90;;;;;;4937764;28;20252;-51
2024/01/09 06:25:47;;;;;;;11.87;8.60;;;-6.50;99.90;;;;;;4932788;28;20202;-51
2024/01/09 06:28:13;;;;;;;14.30;7.40;;;-6.60;99.90;;;;;;4941314;28;20595;-51
2024/01/09 06:30:38;;;;;;;13.67;7.43;;;-6.50;99.90;;;;;;4946576;28;20206;-51
2024/01/09 06:33:04;;;;;;;15.77;8.77;;;-6.60;99.90;;;;;;4954326;28;20620;-54
2024/01/09 06:35:29;;;;;;;9.77;7.47;;;-6.70;99.90;;;;;;4938983;28;20202;-51
2024/01/09 06:37:55;;;;;;;19.00;8.50;;;-6.70;99.90;;;;;;4946571;28;20217;-51
2024/01/09 06:40:23;;;;;;;13.83;8.53;;;-6.80;99.90;;;;;;4946948;28;20863;-51
2024/01/09 06:42:49;;;;;;;13.67;8.33;;;-6.90;99.90;;;;;;4942386;28;20205;-51
2024/01/09 06:45:15;;;;;;;14.60;9.07;;;-6.80;99.90;;;;;;4940042;28;20202;-50
2024/01/09 06:47:41;;;;;;;16.57;8.63;;;-6.80;99.90;;;;;;4962315;28;20209;-53
2024/01/09 06:50:07;;;;;;;12.77;8.63;;;-6.90;99.90;;;;;;4937896;28;20191;-51
2024/01/09 06:52:33;;;;;;;16.40;8.00;;;-7.00;99.90;;;;;;4945574;28;20214;-50
2024/01/09 06:54:58;;;;;;;14.57;8.97;;;-6.90;99.90;;;;;;4938567;28;20256;-50
2024/01/09 06:57:25;;;;;;;11.30;8.07;;;-7.00;99.90;;;;;;4955735;28;20313;-50
2024/01/09 06:59:51;;;;;;;13.30;8.87;;;-7.00;99.90;;;;;;4932587;28;20635;-51
2024/01/09 07:02:16;;;;;;;14.77;9.53;;;-7.00;99.90;;;;;;4936158;28;20252;-53
2024/01/09 07:04:42;;;;;;;17.37;8.33;;;-7.00;99.90;;;;;;4932114;28;20846;-51
2024/01/09 07:07:08;;;;;;;14.87;8.70;;;-7.00;99.90;;;;;;4932032;28;20209;-51
2024/01/09 07:09:33;;;;;;;21.50;9.37;;;-7.10;99.90;;;;;;4930537;28;20285;-54
2024/01/09 07:11:59;;;;;;;16.20;9.17;;;-7.10;99.90;;;;;;4928476;28;20280;-52
2024/01/09 07:14:24;;;;;;;15.23;8.93;;;-7.00;99.90;;;;;;4938076;28;20347;-61
2024/01/09 07:16:51;;;;;;;15.73;8.67;;;-7.00;99.90;;;;;;4931344;28;20230;-55
2024/01/09 07:19:16;;;;;;;16.03;9.33;;;-6.90;99.90;;;;;;4942102;28;20555;-55
2024/01/09 07:21:42;;;;;;;15.33;9.53;;;-6.70;99.90;;;;;;4946251;28;20224;-51
2024/01/09 07:24:07;;;;;;;14.47;9.70;;;-6.70;99.90;;;;;;4943540;28;20301;-52
2024/01/09 07:26:41;;;;;;;18.97;9.03;;;-6.80;99.90;;;;;;4957921;28;20255;-55
2024/01/09 07:29:06;;;;;;;12.87;9.03;;;-6.80;99.90;;;;;;4932491;28;20838;-53
2024/01/09 07:31:32;;;;;;;13.63;8.17;;;-6.70;99.90;;;;;;4934359;28;20206;-55
2024/01/09 07:33:58;;;;;;;14.80;8.57;;;-6.80;99.90;;;;;;4935816;28;20747;-52
2024/01/09 07:36:23;;;;;;;16.77;10.47;;;-6.80;99.90;;;;;;4935983;28;20209;-51
2024/01/09 07:38:49;;;;;;;15.60;8.97;;;-6.80;99.90;;;;;;4924889;28;20688;-53
2024/01/09 07:41:17;;;;;;;13.17;8.00;;;-6.90;99.90;;;;;;4928616;28;20222;-53
2024/01/09 07:43:43;;;;;;;27.07;16.70;;;-7.00;99.90;;;;;;4932575;28;20214;-50
2024/01/09 07:46:10;;;;;;;17.17;9.17;;;-7.00;99.90;;;;;;4925769;28;20205;-51
2024/01/09 07:48:35;;;;;;;18.33;9.13;;;-7.00;99.90;;;;;;4931260;28;20240;-51
2024/01/09 07:51:01;;;;;;;17.40;9.37;;;-7.00;99.90;;;;;;4930962;28;20283;-51
2024/01/09 07:53:27;;;;;;;15.10;9.20;;;-6.80;99.90;;;;;;4930790;28;20210;-52
2024/01/09 07:55:53;;;;;;;25.67;9.87;;;-6.90;99.90;;;;;;4931867;28;20198;-53
2024/01/09 07:58:18;;;;;;;15.50;8.17;;;-6.80;99.90;;;;;;4943606;28;20398;-51
2024/01/09 08:00:44;;;;;;;19.43;9.67;;;-6.80;99.90;;;;;;4952131;28;21042;-59
2024/01/09 08:03:09;;;;;;;17.43;11.10;;;-6.70;99.90;;;;;;4935241;28;20190;-51
2024/01/09 08:05:35;;;;;;;15.90;10.00;;;-6.80;99.90;;;;;;4934904;28;20230;-50
2024/01/09 08:08:00;;;;;;;17.20;10.57;;;-6.90;99.90;;;;;;4929381;28;20802;-50
2024/01/09 08:10:26;;;;;;;22.30;11.13;;;-6.90;99.90;;;;;;4927917;28;20206;-50
2024/01/09 08:12:52;;;;;;;21.87;11.40;;;-6.80;99.90;;;;;;4922721;28;20206;-50
2024/01/09 08:15:17;;;;;;;29.60;12.37;;;-6.80;99.90;;;;;;4932713;28;20215;-52
2024/01/09 08:17:43;;;;;;;22.40;11.97;;;-6.70;99.90;;;;;;4926681;28;20210;-51
2024/01/09 08:20:09;;;;;;;23.97;11.90;;;-6.70;99.90;;;;;;4930896;28;20989;-51
2024/01/09 08:22:34;;;;;;;18.40;10.67;;;-6.50;99.90;;;;;;4931297;28;20954;-58
2024/01/09 08:25:00;;;;;;;23.57;11.03;;;-6.40;99.90;;;;;;4933347;28;20272;-51
2024/01/09 08:27:26;;;;;;;19.07;10.00;;;-6.30;99.90;;;;;;4937578;28;20941;-52
2024/01/09 08:29:51;;;;;;;22.37;11.50;;;-6.40;99.90;;;;;;4933337;28;20321;-52
2024/01/09 08:32:18;;;;;;;17.43;10.33;;;-6.40;99.90;;;;;;4930388;28;20285;-51
2024/01/09 08:34:43;;;;;;;22.47;10.97;;;-6.50;99.90;;;;;;4930520;28;20206;-51
2024/01/09 08:37:09;;;;;;;18.10;11.33;;;-6.40;99.90;;;;;;4929976;28;20271;-51
2024/01/09 08:39:35;;;;;;;21.53;10.37;;;-6.20;99.90;;;;;;4925283;28;20245;-51
2024/01/09 08:42:00;;;;;;;18.80;11.53;;;-6.40;99.90;;;;;;4924714;28;20229;-52
2024/01/09 08:44:27;;;;;;;19.40;10.20;;;-6.40;99.90;;;;;;4924210;28;20233;-52
2024/01/09 08:46:52;;;;;;;19.30;11.40;;;-6.30;99.90;;;;;;4926588;28;20777;-52
2024/01/09 08:49:19;;;;;;;19.03;10.60;;;-6.20;99.90;;;;;;4939717;28;20315;-52
2024/01/09 08:51:44;;;;;;;22.47;12.37;;;-6.20;99.90;;;;;;4928395;28;20202;-50
2024/01/09 08:54:10;;;;;;;18.80;10.53;;;-6.10;99.90;;;;;;4930489;28;20210;-53
2024/01/09 08:56:35;;;;;;;18.20;10.67;;;-6.20;99.90;;;;;;4929607;28;20227;-53
2024/01/09 08:59:01;;;;;;;17.77;11.00;;;-6.10;99.90;;;;;;4934856;28;20202;-51
2024/01/09 09:01:27;;;;;;;22.27;13.30;;;-6.00;99.90;;;;;;4929509;28;20222;-51
2024/01/09 09:03:53;;;;;;;17.93;9.50;;;-6.10;99.90;;;;;;4929316;28;20206;-61
2024/01/09 09:06:19;;;;;;;19.67;10.40;;;-6.10;99.90;;;;;;4933970;28;20218;-61
2024/01/09 09:08:44;;;;;;;21.10;11.33;;;-6.00;99.90;;;;;;4932076;28;20661;-52
2024/01/09 09:11:14;;;;;;;23.77;11.80;;;-6.00;99.90;;;;;;4932654;28;20256;-52
2024/01/09 09:13:41;;;;;;;19.97;9.77;;;-5.80;99.90;;;;;;4934845;28;20206;-51
2024/01/09 09:16:06;;;;;;;18.43;10.00;;;-5.70;99.90;;;;;;4929380;28;20224;-51
2024/01/09 09:18:32;;;;;;;19.57;10.80;;;-5.70;99.90;;;;;;4935640;28;20759;-52
2024/01/09 09:20:57;;;;;;;18.83;9.83;;;-5.90;99.90;;;;;;4930729;28;20803;-52
2024/01/09 09:23:23;;;;;;;21.87;11.23;;;-5.80;99.90;;;;;;4944958;28;20205;-52
2024/01/09 09:25:48;;;;;;;18.63;10.77;;;-5.90;99.90;;;;;;4946010;28;20214;-53
2024/01/09 09:28:14;;;;;;;16.50;11.13;;;-6.00;99.90;;;;;;4942081;28;20222;-52
2024/01/09 09:30:39;;;;;;;22.03;11.70;;;-6.20;99.90;;;;;;4940822;28;20705;-57
2024/01/09 09:33:05;;;;;;;20.93;12.07;;;-6.10;99.90;;;;;;4933689;28;20199;-61
2024/01/09 09:35:30;;;;;;;19.07;10.87;;;-6.10;99.90;;;;;;4933636;28;20213;-53
2024/01/09 09:38:00;;;;;;;22.17;11.57;;;-5.90;99.90;;;;;;4937244;28;20321;-51
2024/01/09 09:40:25;;;;;;;24.10;12.73;;;-5.70;99.90;;;;;;4994311;23;20352;-51
2024/01/09 09:42:55;;;;;;;14.60;10.13;;;-5.90;99.90;;;;;;4951973;28;20338;-50
2024/01/09 09:45:22;;;;;;;17.20;10.47;;;-5.60;99.90;;;;;;4944820;28;20571;-51
2024/01/09 09:47:49;;;;;;;17.17;10.07;;;-5.50;99.90;;;;;;4953723;28;20209;-51
2024/01/09 09:50:15;;;;;;;18.33;11.43;;;-5.60;99.90;;;;;;4947366;28;20207;-53
2024/01/09 09:52:42;;;;;;;20.17;12.40;;;-5.40;99.90;;;;;;4946009;28;20272;-52
2024/01/09 09:55:11;;;;;;;23.30;13.07;;;-5.50;99.90;;;;;;4945815;28;20201;-52
2024/01/09 09:57:37;;;;;;;20.93;13.90;;;-5.50;99.90;;;;;;4945967;28;20210;-52
2024/01/09 10:00:09;;;;;;;20.37;11.47;;;-5.50;99.90;;;;;;4945477;28;20213;-52
2024/01/09 10:02:42;;;;;;;18.57;11.43;;;-5.40;99.90;;;;;;4934144;28;20206;-53
2024/01/09 10:05:16;;;;;;;20.80;12.33;;;-5.40;99.90;;;;;;4935447;28;20210;-55
2024/01/09 10:07:45;;;;;;;20.90;11.77;;;-5.40;99.90;;;;;;4928836;28;20191;-51
2024/01/09 10:10:12;;;;;;;19.63;12.53;;;-5.30;99.90;;;;;;4942786;28;20235;-51
2024/01/09 10:12:39;;;;;;;20.70;12.37;;;-5.10;99.90;;;;;;4941995;28;20669;-51
2024/01/09 10:15:11;;;;;;;59.67;26.33;;;-5.10;99.90;;;;;;4948593;28;20240;-52
2024/01/09 10:17:38;;;;;;;21.43;11.37;;;-4.90;99.90;;;;;;4950257;28;20379;-50
2024/01/09 10:20:05;;;;;;;20.53;12.07;;;-4.70;99.90;;;;;;4936220;28;20285;-52
2024/01/09 10:22:33;;;;;;;29.17;13.57;;;-4.90;99.90;;;;;;4937006;28;20212;-52
2024/01/09 10:24:58;;;;;;;18.93;11.57;;;-4.90;99.90;;;;;;4937902;28;20198;-52
2024/01/09 10:27:25;;;;;;;18.03;11.90;;;-4.90;99.90;;;;;;4940276;28;20206;-51
2024/01/09 10:29:51;;;;;;;22.07;12.03;;;-4.80;99.90;;;;;;4941881;28;20198;-52
2024/01/09 10:32:18;;;;;;;22.37;12.00;;;-4.80;99.90;;;;;;4935327;28;20365;-52
2024/01/09 10:34:44;;;;;;;19.83;10.70;;;-4.60;99.90;;;;;;5042907;28;20201;-51
2024/01/09 10:37:09;;;;;;;25.60;12.63;;;-4.10;99.00;;;;;;4949068;28;20989;-52
2024/01/09 10:39:35;;;;;;;22.80;14.23;;;-4.00;98.30;;;;;;4936609;28;20222;-52
2024/01/09 10:42:07;;;;;;;19.40;12.07;;;-4.20;98.50;;;;;;4938927;28;20285;-52
2024/01/09 10:44:32;;;;;;;22.20;12.77;;;-4.10;98.90;;;;;;5038834;28;20219;-52
2024/01/09 10:46:59;;;;;;;21.33;13.07;;;-3.90;98.30;;;;;;4944315;28;20205;-52
2024/01/09 10:49:26;;;;;;;20.93;13.53;;;-3.60;98.20;;;;;;4935948;28;20215;-55
2024/01/09 10:51:52;;;;;;;21.50;12.30;;;-3.50;98.30;;;;;;5034580;28;20206;-52
2024/01/09 10:54:20;;;;;;;23.80;12.80;;;-3.00;97.20;;;;;;4941854;28;20233;-63
2024/01/09 10:56:49;;;;;;;24.40;13.67;;;-2.80;96.70;;;;;;4943758;28;20199;-58
2024/01/09 10:59:16;;;;;;;23.87;13.60;;;-2.80;96.80;;;;;;4937057;28;20234;-58
2024/01/09 11:01:41;;;;;;;44.80;23.07;;;-3.10;97.10;;;;;;4936083;28;20220;-54
2024/01/09 11:04:08;;;;;;;42.10;19.97;;;-2.80;99.90;;;;;;4938765;28;20272;-51
2024/01/09 11:06:36;;;;;;;20.23;12.33;;;-2.60;99.30;;;;;;4934537;28;20192;-50
2024/01/09 11:09:04;;;;;;;47.27;21.13;;;-2.00;94.80;;;;;;4940888;28;20264;-52
2024/01/09 11:11:32;;;;;;;25.13;13.90;;;-2.20;96.50;;;;;;4941495;28;20205;-51
2024/01/09 11:14:00;;;;;;;23.27;13.37;;;-2.20;97.30;;;;;;4942456;28;20201;-51
2024/01/09 11:16:29;;;;;;;25.10;13.77;;;-2.20;96.40;;;;;;4938891;28;20214;-50
2024/01/09 11:18:55;;;;;;;39.87;19.33;;;-2.40;95.90;;;;;;4938993;28;20688;-51
2024/01/09 11:21:25;;;;;;;20.03;12.40;;;-2.20;96.40;;;;;;4946820;28;20688;-52
2024/01/09 11:24:00;;;;;;;27.83;15.93;;;-1.70;95.70;;;;;;4946715;28;20227;-52
2024/01/09 11:26:31;;;;;;;22.30;13.77;;;-1.60;95.80;;;;;;4944537;28;20200;-51
2024/01/09 11:28:57;;;;;;;29.33;16.90;;;-1.10;94.40;;;;;;4945168;28;20203;-51
2024/01/09 11:31:24;;;;;;;25.20;12.70;;;-1.30;95.20;;;;;;4944368;28;20838;-51
2024/01/09 11:33:53;;;;;;;17.50;11.80;;;-1.20;95.00;;;;;;4945733;28;20413;-51
2024/01/09 11:36:34;;;;;;;18.83;11.60;;;-1.60;94.70;;;;;;4933672;28;20208;-52
2024/01/09 11:39:00;;;;;;;25.00;14.40;;;-1.20;93.80;;;;;;4936597;28;20337;-60
2024/01/09 11:41:35;;;;;;;27.30;15.93;;;-0.90;95.40;;;;;;4939334;28;20279;-51
2024/01/09 11:44:05;;;;;;;22.20;13.53;;;-0.50;93.80;;;;;;4944571;28;20246;-51
2024/01/09 11:46:35;;;;;;;17.03;11.77;;;0.10;89.80;;;;;;4947570;28;20200;-51
2024/01/09 11:49:02;;;;;;;17.80;11.13;;;0.20;86.60;;;;;;4940318;28;20201;-51
2024/01/09 11:51:29;;;;;;;21.70;12.77;;;0.30;84.30;;;;;;4943637;28;20747;-52
2024/01/09 11:53:58;;;;;;;27.50;15.87;;;0.20;88.70;;;;;;4940389;28;20215;-51
2024/01/09 11:56:26;;;;;;;25.83;14.20;;;0.60;89.50;;;;;;4941122;28;20905;-51
2024/01/09 11:58:52;;;;;;;19.87;12.17;;;0.10;93.00;;;;;;4940308;28;20216;-52
2024/01/09 12:01:21;;;;;;;23.93;12.77;;;-0.20;91.40;;;;;;4935069;28;20689;-51
2024/01/09 12:03:54;;;;;;;19.87;12.53;;;-0.20;92.80;;;;;;4941547;28;20205;-49
2024/01/09 12:06:22;;;;;;;26.30;12.57;;;0.60;89.70;;;;;;4943742;28;20882;-50
2024/01/09 12:08:48;;;;;;;25.03;13.83;;;1.10;91.10;;;;;;4943642;28;20666;-52
2024/01/09 12:11:15;;;;;;;18.67;12.13;;;1.40;92.20;;;;;;4943748;28;20210;-51
2024/01/09 12:13:41;;;;;;;24.37;13.07;;;1.60;85.90;;;;;;4940183;28;20210;-52
2024/01/09 12:16:17;;;;;;;17.30;11.43;;;1.20;90.60;;;;;;4938900;28;20206;-52
2024/01/09 12:18:47;;;;;;;20.07;12.07;;;1.60;86.20;;;;;;4944120;28;20213;-52
2024/01/09 12:21:12;;;;;;;18.97;12.10;;;1.00;85.50;;;;;;4958198;28;20759;-52
2024/01/09 12:23:38;;;;;;;21.10;11.30;;;1.00;83.50;;;;;;4944194;28;20308;-51
2024/01/09 12:26:09;;;;;;;18.90;11.40;;;1.90;80.90;;;;;;4946077;28;20738;-51
2024/01/09 12:28:36;;;;;;;18.30;11.87;;;1.80;78.90;;;;;;4944898;28;20208;-51